Time;durP1;ratioP1;P1;durP2;ratioP2;P2;SDS_P1;SDS_P2;PMS_P1;PMS_P2;Temp;Humidity;BMP_temperature;BMP_pressure;BME280_temperature;BME280_humidity;BME280_pressure;Samples;Min_cycle;Max_cycle;Signal;HPM_P1;HPM_P2
2021/10/18 00:00:56;;;;;;;15.23;10.80;;;10.80;99.90;;;;;;2750059;28;10001987;-67
2021/10/18 00:03:25;;;;;;;15.00;11.20;;;10.80;99.90;;;;;;4997566;28;20474;-67
2021/10/18 00:05:53;;;;;;;14.20;11.33;;;10.80;99.90;;;;;;4994100;28;20244;-66
2021/10/18 00:08:22;;;;;;;17.40;11.27;;;10.80;99.90;;;;;;4984553;28;20344;-67
2021/10/18 00:10:50;;;;;;;14.27;11.07;;;10.80;99.90;;;;;;4995597;28;20642;-67
2021/10/18 00:13:40;;;;;;;14.50;10.77;;;10.70;99.90;;;;;;4986407;28;20734;-67
2021/10/18 00:16:08;;;;;;;16.17;11.30;;;10.70;99.90;;;;;;4999917;28;20263;-67
2021/10/18 00:18:36;;;;;;;16.90;11.43;;;10.70;99.90;;;;;;4993638;28;20237;-67
2021/10/18 00:21:05;;;;;;;16.07;11.30;;;10.70;99.90;;;;;;4998786;28;20230;-67
2021/10/18 00:23:33;;;;;;;16.73;11.67;;;10.70;99.90;;;;;;4996675;28;20333;-66
2021/10/18 00:26:01;;;;;;;18.07;12.43;;;10.70;99.90;;;;;;4994616;28;20564;-67
2021/10/18 00:28:29;;;;;;;14.73;11.40;;;10.70;99.90;;;;;;4989901;28;20507;-67
2021/10/18 00:30:58;;;;;;;13.97;11.10;;;10.80;99.90;;;;;;4992816;28;20237;-66
2021/10/18 00:33:27;;;;;;;14.60;10.83;;;10.80;99.90;;;;;;4990276;28;20322;-67
2021/10/18 00:35:55;;;;;;;16.13;10.87;;;10.80;99.90;;;;;;4991157;28;20562;-67
2021/10/18 00:38:23;;;;;;;13.70;10.97;;;10.80;99.90;;;;;;4990144;28;20261;-67
2021/10/18 00:40:51;;;;;;;15.33;12.03;;;10.90;99.90;;;;;;4994502;28;20241;-67
2021/10/18 00:43:19;;;;;;;16.97;12.00;;;10.80;99.90;;;;;;4991319;28;20293;-67
2021/10/18 00:45:48;;;;;;;14.07;11.13;;;10.80;99.90;;;;;;4998869;28;20287;-67
2021/10/18 00:48:17;;;;;;;16.40;11.80;;;10.80;99.90;;;;;;4988843;28;20234;-67
2021/10/18 00:50:47;;;;;;;16.50;11.50;;;10.80;99.90;;;;;;4994163;28;20233;-67
2021/10/18 00:53:16;;;;;;;15.20;11.37;;;10.80;99.90;;;;;;4991736;28;20643;-67
2021/10/18 00:55:45;;;;;;;13.87;11.20;;;10.80;99.90;;;;;;4995163;28;20317;-67
2021/10/18 00:58:13;;;;;;;16.20;11.83;;;10.70;99.90;;;;;;4996433;28;20238;-67
2021/10/18 01:00:41;;;;;;;16.67;11.97;;;10.80;99.90;;;;;;4992633;28;20295;-67
2021/10/18 01:03:10;;;;;;;15.97;12.03;;;10.80;99.90;;;;;;4996050;28;20266;-67
2021/10/18 01:05:41;;;;;;;16.70;12.80;;;10.80;99.90;;;;;;4989290;28;20329;-67
2021/10/18 01:08:09;;;;;;;17.97;11.80;;;10.80;99.90;;;;;;4990442;28;20670;-67
2021/10/18 01:10:38;;;;;;;15.53;12.27;;;10.70;99.90;;;;;;4991522;28;20242;-67
2021/10/18 01:13:06;;;;;;;16.33;12.00;;;10.70;99.90;;;;;;4994310;28;20312;-67
2021/10/18 01:15:34;;;;;;;16.23;12.93;;;10.70;99.90;;;;;;4993022;28;20242;-67
2021/10/18 01:18:03;;;;;;;16.87;12.47;;;10.70;99.90;;;;;;4996119;28;20628;-67
2021/10/18 01:20:33;;;;;;;17.30;12.80;;;10.70;99.90;;;;;;4980338;28;20324;-67
2021/10/18 01:23:02;;;;;;;17.57;12.40;;;10.70;99.90;;;;;;4997428;28;20320;-67
2021/10/18 01:25:30;;;;;;;15.57;13.37;;;10.70;99.90;;;;;;4975486;28;20278;-67
2021/10/18 01:27:58;;;;;;;16.23;12.90;;;10.70;99.90;;;;;;4998984;28;20229;-67
2021/10/18 01:30:27;;;;;;;15.30;11.83;;;10.70;99.90;;;;;;4987418;28;20234;-67
2021/10/18 01:32:56;;;;;;;16.80;12.03;;;10.70;99.90;;;;;;4992819;28;20242;-67
2021/10/18 01:35:24;;;;;;;17.17;13.53;;;10.70;99.90;;;;;;4988177;28;20237;-67
2021/10/18 01:37:54;;;;;;;16.70;12.67;;;10.70;99.90;;;;;;4989549;28;20238;-67
2021/10/18 01:40:24;;;;;;;17.20;13.23;;;10.70;99.90;;;;;;4991868;28;20332;-67
2021/10/18 01:42:53;;;;;;;16.73;12.63;;;10.70;99.90;;;;;;4989638;28;20702;-67
2021/10/18 01:45:22;;;;;;;17.77;13.70;;;10.70;99.90;;;;;;4983765;28;20254;-67
2021/10/18 01:47:51;;;;;;;18.97;13.17;;;10.70;99.90;;;;;;4992820;28;20317;-67
2021/10/18 01:50:21;;;;;;;20.43;13.50;;;10.70;99.90;;;;;;4986330;28;20225;-67
2021/10/18 01:52:51;;;;;;;18.57;12.77;;;10.70;99.90;;;;;;4990142;28;20258;-67
2021/10/18 01:55:21;;;;;;;19.63;13.70;;;10.70;99.90;;;;;;4988157;28;20537;-67
2021/10/18 01:57:51;;;;;;;14.77;12.30;;;10.70;99.90;;;;;;4991755;28;20761;-67
2021/10/18 02:00:19;;;;;;;15.67;13.20;;;10.80;99.90;;;;;;4993416;28;20243;-67
2021/10/18 02:02:48;;;;;;;18.07;13.23;;;10.80;99.90;;;;;;4989931;28;20321;-67
2021/10/18 02:05:17;;;;;;;18.93;12.70;;;10.80;99.90;;;;;;4990155;28;20238;-67
2021/10/18 02:07:45;;;;;;;20.57;14.00;;;10.80;99.90;;;;;;4987987;28;20325;-67
2021/10/18 02:10:14;;;;;;;16.27;13.10;;;10.80;99.90;;;;;;4987992;28;20243;-67
2021/10/18 02:12:44;;;;;;;18.40;13.00;;;10.80;99.90;;;;;;4992825;28;20221;-67
2021/10/18 02:15:12;;;;;;;17.60;13.67;;;10.80;99.90;;;;;;4986765;28;20276;-67
2021/10/18 02:17:41;;;;;;;15.53;12.87;;;10.80;99.90;;;;;;4991229;28;20245;-67
2021/10/18 02:20:12;;;;;;;17.60;13.77;;;10.80;99.90;;;;;;4994872;28;20703;-67
2021/10/18 02:22:41;;;;;;;18.80;13.53;;;10.80;99.90;;;;;;4989904;28;20243;-67
2021/10/18 02:25:13;;;;;;;19.90;13.60;;;10.80;99.90;;;;;;4995411;28;20235;-67
2021/10/18 02:27:43;;;;;;;18.37;14.00;;;10.80;99.90;;;;;;4997440;28;20339;-67
2021/10/18 02:30:12;;;;;;;16.70;13.23;;;10.80;99.90;;;;;;4994736;28;20711;-67
2021/10/18 02:32:41;;;;;;;16.57;13.70;;;10.80;99.90;;;;;;4993864;28;20706;-67
2021/10/18 02:35:10;;;;;;;16.23;13.73;;;10.80;99.90;;;;;;4992000;28;20589;-67
2021/10/18 02:37:38;;;;;;;15.73;13.27;;;10.80;99.90;;;;;;4996628;28;20326;-67
2021/10/18 02:40:08;;;;;;;15.40;13.20;;;10.80;99.90;;;;;;4995332;28;20239;-67
2021/10/18 02:42:36;;;;;;;17.47;13.40;;;10.90;99.90;;;;;;4998188;28;20250;-66
2021/10/18 02:45:07;;;;;;;16.47;13.33;;;10.90;99.90;;;;;;4990368;28;20268;-67
2021/10/18 02:47:36;;;;;;;16.73;13.27;;;10.90;99.90;;;;;;4993620;28;20328;-67
2021/10/18 02:50:05;;;;;;;17.27;13.50;;;10.90;99.90;;;;;;4992645;28;20312;-66
2021/10/18 02:52:33;;;;;;;16.13;13.13;;;10.90;99.90;;;;;;4997560;28;20242;-67
2021/10/18 02:55:01;;;;;;;18.93;13.50;;;10.90;99.90;;;;;;4995398;28;20238;-67
2021/10/18 02:57:30;;;;;;;18.93;13.13;;;10.90;99.90;;;;;;4997701;28;20233;-67
2021/10/18 02:59:58;;;;;;;19.70;13.63;;;10.90;99.90;;;;;;4992982;28;20695;-67
2021/10/18 03:02:27;;;;;;;17.77;13.60;;;10.90;99.90;;;;;;4995664;28;20590;-67
2021/10/18 03:04:55;;;;;;;17.17;14.10;;;10.90;99.90;;;;;;4999966;28;20250;-67
2021/10/18 03:07:23;;;;;;;17.83;13.67;;;10.90;99.90;;;;;;4992144;28;20317;-67
2021/10/18 03:09:52;;;;;;;16.07;13.87;;;10.90;99.90;;;;;;4987844;28;20254;-67
2021/10/18 03:12:20;;;;;;;19.13;13.63;;;10.90;99.90;;;;;;4989040;28;20315;-67
2021/10/18 03:14:48;;;;;;;17.30;14.10;;;10.90;99.90;;;;;;4994955;28;20238;-67
2021/10/18 03:17:16;;;;;;;17.00;13.07;;;10.90;99.90;;;;;;4994188;28;20233;-67
2021/10/18 03:19:45;;;;;;;17.40;13.97;;;10.90;99.90;;;;;;4990665;28;20245;-67
2021/10/18 03:22:14;;;;;;;15.53;13.23;;;10.90;99.90;;;;;;4993664;28;20246;-66
2021/10/18 03:24:42;;;;;;;17.83;13.93;;;10.90;99.90;;;;;;5000587;28;20318;-67
2021/10/18 03:27:10;;;;;;;17.57;15.07;;;10.90;99.90;;;;;;4996921;28;20265;-66
2021/10/18 03:29:38;;;;;;;22.77;13.70;;;11.00;99.90;;;;;;4991112;28;20235;-67
2021/10/18 03:32:07;;;;;;;16.20;13.50;;;10.90;99.90;;;;;;4990224;28;20322;-67
2021/10/18 03:34:35;;;;;;;16.00;13.70;;;10.90;99.90;;;;;;4994383;28;20244;-67
2021/10/18 03:37:04;;;;;;;19.87;14.10;;;10.90;99.90;;;;;;4996131;28;20245;-67
2021/10/18 03:39:32;;;;;;;20.60;14.30;;;10.90;99.90;;;;;;4998319;28;20244;-67
2021/10/18 03:42:01;;;;;;;18.17;14.43;;;10.90;99.90;;;;;;4992088;28;20269;-67
2021/10/18 03:44:29;;;;;;;17.73;13.80;;;10.90;99.90;;;;;;4986486;28;20234;-67
2021/10/18 03:46:57;;;;;;;18.20;14.47;;;10.90;99.90;;;;;;4995970;28;20231;-67
2021/10/18 03:49:25;;;;;;;18.47;14.43;;;11.00;99.90;;;;;;4985901;28;20321;-67
2021/10/18 03:51:53;;;;;;;19.03;14.23;;;11.00;99.90;;;;;;4995998;28;20231;-67
2021/10/18 03:54:23;;;;;;;16.90;14.00;;;10.90;99.90;;;;;;4996163;28;20263;-67
2021/10/18 03:56:51;;;;;;;19.07;14.30;;;10.90;99.90;;;;;;4993128;28;20747;-67
2021/10/18 03:59:19;;;;;;;16.43;13.93;;;11.00;99.90;;;;;;4990558;28;20707;-67
2021/10/18 04:01:48;;;;;;;19.10;14.10;;;11.00;99.90;;;;;;4997213;28;20227;-67
2021/10/18 04:04:16;;;;;;;18.93;14.40;;;11.00;99.90;;;;;;4993022;28;20242;-67
2021/10/18 04:06:46;;;;;;;17.77;13.77;;;11.00;99.90;;;;;;5000163;28;20304;-67
2021/10/18 04:09:15;;;;;;;18.10;14.33;;;11.00;99.90;;;;;;4982942;28;20663;-67
2021/10/18 04:11:44;;;;;;;18.13;14.00;;;11.00;99.90;;;;;;4986121;28;20271;-67
2021/10/18 04:14:12;;;;;;;19.97;13.83;;;11.00;99.90;;;;;;4992346;28;20247;-67
2021/10/18 04:16:41;;;;;;;18.33;14.03;;;11.00;99.90;;;;;;4997859;28;20297;-67
2021/10/18 04:19:09;;;;;;;17.40;13.43;;;11.00;99.90;;;;;;4988882;28;20230;-67
2021/10/18 04:21:37;;;;;;;19.67;14.03;;;11.00;99.90;;;;;;4989415;28;20721;-67
2021/10/18 04:24:06;;;;;;;19.23;13.70;;;11.00;99.90;;;;;;4996670;28;20237;-67
2021/10/18 04:26:34;;;;;;;17.77;14.13;;;10.90;99.90;;;;;;4993962;28;20244;-66
2021/10/18 04:29:05;;;;;;;19.67;14.30;;;10.90;99.90;;;;;;4991646;28;20370;-66
2021/10/18 04:31:33;;;;;;;16.60;13.57;;;10.90;99.90;;;;;;4981844;28;20243;-67
2021/10/18 04:34:02;;;;;;;17.40;14.97;;;10.80;99.90;;;;;;4992434;28;20327;-67
2021/10/18 04:36:30;;;;;;;16.90;13.47;;;10.80;99.90;;;;;;4998545;28;20322;-67
2021/10/18 04:38:59;;;;;;;16.90;13.93;;;10.80;99.90;;;;;;4999851;28;20281;-67
2021/10/18 04:41:27;;;;;;;17.13;14.17;;;10.80;99.90;;;;;;4989180;28;20242;-67
2021/10/18 04:43:55;;;;;;;19.73;14.97;;;10.70;99.90;;;;;;4995635;28;20317;-67
2021/10/18 04:46:25;;;;;;;16.77;14.30;;;10.70;99.90;;;;;;4997020;28;20233;-67
2021/10/18 04:48:53;;;;;;;20.87;14.67;;;10.70;99.90;;;;;;4993657;28;20241;-67
2021/10/18 04:51:21;;;;;;;20.03;15.53;;;10.70;99.90;;;;;;4993863;28;20478;-67
2021/10/18 04:53:49;;;;;;;16.80;14.60;;;10.70;99.90;;;;;;4997343;28;20712;-66
2021/10/18 04:56:17;;;;;;;19.40;15.10;;;10.70;99.90;;;;;;4994944;28;20245;-67
2021/10/18 04:58:45;;;;;;;18.17;14.50;;;10.70;99.90;;;;;;4989299;28;20323;-66
2021/10/18 05:01:14;;;;;;;19.53;15.70;;;10.70;99.90;;;;;;4998594;28;20237;-67
2021/10/18 05:03:43;;;;;;;19.40;14.93;;;10.70;99.90;;;;;;4995498;28;20241;-69
2021/10/18 05:06:11;;;;;;;19.07;14.83;;;10.70;99.90;;;;;;4991984;28;20250;-69
2021/10/18 05:08:39;;;;;;;18.00;14.97;;;10.70;99.90;;;;;;4990988;28;20243;-69
2021/10/18 05:11:08;;;;;;;18.40;15.47;;;10.80;99.90;;;;;;4986682;28;20300;-69
2021/10/18 05:13:36;;;;;;;18.23;15.27;;;10.70;99.90;;;;;;4992461;28;20238;-69
2021/10/18 05:16:05;;;;;;;22.17;16.20;;;10.80;99.90;;;;;;4994969;28;20243;-69
2021/10/18 05:18:33;;;;;;;18.67;14.47;;;10.80;99.90;;;;;;4989679;28;20321;-69
2021/10/18 05:21:05;;;;;;;19.27;15.00;;;10.80;99.90;;;;;;4990224;28;20266;-69
2021/10/18 05:23:34;;;;;;;19.60;15.70;;;10.80;99.90;;;;;;4993710;28;20250;-69
2021/10/18 05:26:02;;;;;;;20.63;15.43;;;10.80;99.90;;;;;;4990868;28;20238;-68
2021/10/18 05:28:31;;;;;;;20.33;15.50;;;10.70;99.90;;;;;;4989239;28;20721;-69
2021/10/18 05:30:59;;;;;;;21.17;16.30;;;10.80;99.90;;;;;;4989083;28;20256;-68
2021/10/18 05:33:27;;;;;;;18.43;15.13;;;10.80;99.90;;;;;;4987837;28;20330;-68
2021/10/18 05:35:55;;;;;;;23.50;16.23;;;10.80;99.90;;;;;;4989695;28;20257;-69
2021/10/18 05:38:24;;;;;;;20.00;15.33;;;10.80;99.90;;;;;;4989766;28;20243;-68
2021/10/18 05:40:54;;;;;;;19.73;15.97;;;10.80;99.90;;;;;;4992855;28;20780;-69
2021/10/18 05:43:22;;;;;;;18.37;15.07;;;10.80;99.90;;;;;;4996555;28;20240;-69
2021/10/18 05:45:50;;;;;;;20.03;15.80;;;10.80;99.90;;;;;;4993052;28;20242;-67
2021/10/18 05:48:19;;;;;;;19.57;15.50;;;10.80;99.90;;;;;;4992940;28;20242;-67
2021/10/18 05:50:47;;;;;;;20.40;16.13;;;10.80;99.90;;;;;;4987193;28;20303;-67
2021/10/18 05:53:15;;;;;;;19.30;15.90;;;10.80;99.90;;;;;;4984410;28;20245;-67
2021/10/18 05:55:44;;;;;;;22.07;15.90;;;10.80;99.90;;;;;;4990127;28;20270;-67
2021/10/18 05:58:13;;;;;;;20.40;15.17;;;10.80;99.90;;;;;;4991797;28;20238;-67
2021/10/18 06:00:42;;;;;;;22.67;15.83;;;10.80;99.90;;;;;;4998437;28;20237;-66
2021/10/18 06:03:11;;;;;;;21.60;16.00;;;10.80;99.90;;;;;;4997764;28;20289;-67
2021/10/18 06:05:43;;;;;;;22.60;16.00;;;10.80;99.90;;;;;;5001230;28;20254;-67
2021/10/18 06:08:25;;;;;;;20.63;16.10;;;10.80;99.90;;;;;;4992224;28;20715;-67
2021/10/18 06:10:54;;;;;;;23.90;16.47;;;10.80;99.90;;;;;;4993878;28;20234;-67
2021/10/18 06:13:22;;;;;;;19.93;15.23;;;10.80;99.90;;;;;;4999773;28;22379;-67
2021/10/18 06:15:52;;;;;;;19.20;15.00;;;10.80;99.90;;;;;;4999838;28;20232;-67
2021/10/18 06:18:20;;;;;;;20.47;16.23;;;10.80;99.90;;;;;;5000384;28;20863;-66
2021/10/18 06:20:51;;;;;;;21.70;15.90;;;10.80;99.90;;;;;;4992703;28;20769;-66
2021/10/18 06:23:20;;;;;;;20.47;16.30;;;10.80;99.90;;;;;;4989741;28;20707;-66
2021/10/18 06:25:49;;;;;;;18.33;15.40;;;10.80;99.90;;;;;;4995985;28;20237;-66
2021/10/18 06:28:19;;;;;;;19.23;15.23;;;10.80;99.90;;;;;;4992248;28;20991;-66
2021/10/18 06:30:47;;;;;;;19.93;15.50;;;10.80;99.90;;;;;;4995628;28;20709;-66
2021/10/18 06:33:15;;;;;;;17.40;15.43;;;10.80;99.90;;;;;;4980928;28;20256;-66
2021/10/18 06:35:43;;;;;;;18.20;14.73;;;10.80;99.90;;;;;;4974008;28;20263;-66
2021/10/18 06:38:13;;;;;;;21.17;15.63;;;10.80;99.90;;;;;;4975676;28;20273;-66
2021/10/18 06:40:43;;;;;;;21.37;15.63;;;10.90;99.90;;;;;;4976385;28;20238;-67
2021/10/18 06:43:11;;;;;;;19.87;15.73;;;10.90;99.90;;;;;;4975195;28;20482;-67
2021/10/18 06:45:41;;;;;;;21.30;14.87;;;10.90;99.90;;;;;;4974999;28;20235;-67
2021/10/18 06:48:10;;;;;;;19.50;15.53;;;11.00;99.90;;;;;;4976159;28;20234;-66
2021/10/18 06:50:40;;;;;;;20.33;15.07;;;10.90;99.90;;;;;;4975839;28;20333;-66
2021/10/18 06:53:13;;;;;;;20.07;15.63;;;10.90;99.90;;;;;;4975045;28;20239;-67
2021/10/18 06:55:41;;;;;;;20.37;17.00;;;11.00;99.90;;;;;;4972424;28;20247;-66
2021/10/18 06:58:10;;;;;;;17.67;15.30;;;11.00;99.90;;;;;;4975807;28;20308;-66
2021/10/18 07:00:40;;;;;;;20.20;16.53;;;11.10;99.90;;;;;;4965387;28;20241;-66
2021/10/18 07:03:09;;;;;;;20.97;15.63;;;11.10;99.90;;;;;;4975608;28;20242;-66
2021/10/18 07:05:38;;;;;;;19.77;15.37;;;11.10;99.90;;;;;;4972111;28;20274;-66
2021/10/18 07:08:06;;;;;;;21.37;16.30;;;11.00;99.90;;;;;;4974139;28;20706;-66
2021/10/18 07:10:35;;;;;;;20.87;16.27;;;11.00;99.90;;;;;;4975759;28;21319;-66
2021/10/18 07:13:09;;;;;;;18.73;16.10;;;11.10;99.90;;;;;;4975293;28;20250;-67
2021/10/18 07:15:37;;;;;;;19.63;15.47;;;11.10;99.90;;;;;;4972688;28;20241;-66
2021/10/18 07:18:08;;;;;;;19.00;16.03;;;11.10;99.90;;;;;;4976230;28;20254;-66
2021/10/18 07:20:37;;;;;;;19.07;15.77;;;11.10;99.90;;;;;;4974891;28;20242;-66
2021/10/18 07:23:09;;;;;;;20.33;15.70;;;11.10;99.90;;;;;;4974670;28;20239;-66
2021/10/18 07:25:39;;;;;;;18.53;16.03;;;11.20;99.90;;;;;;4971641;28;20245;-66
2021/10/18 07:28:08;;;;;;;20.33;16.70;;;11.20;99.90;;;;;;4974541;28;20313;-66
2021/10/18 07:30:38;;;;;;;24.83;16.37;;;11.20;99.90;;;;;;4975069;28;20993;-66
2021/10/18 07:33:08;;;;;;;20.43;15.27;;;11.30;99.90;;;;;;4973910;28;20276;-66
2021/10/18 07:35:37;;;;;;;20.37;15.53;;;11.30;99.90;;;;;;4972284;28;20252;-66
2021/10/18 07:38:06;;;;;;;17.23;15.37;;;11.30;99.90;;;;;;4975880;28;20242;-66
2021/10/18 07:40:35;;;;;;;20.33;16.20;;;11.30;99.90;;;;;;4975768;28;20242;-66
2021/10/18 07:43:03;;;;;;;21.50;16.43;;;11.30;99.90;;;;;;4975105;28;20245;-66
2021/10/18 07:45:32;;;;;;;21.83;16.50;;;11.30;99.90;;;;;;4969576;28;20237;-66
2021/10/18 07:48:00;;;;;;;20.90;15.90;;;11.30;99.90;;;;;;4974352;28;20289;-66
2021/10/18 07:50:30;;;;;;;18.83;15.40;;;11.40;99.90;;;;;;4974318;28;20330;-67
2021/10/18 07:52:59;;;;;;;19.97;16.27;;;11.40;99.90;;;;;;4975499;28;20270;-67
2021/10/18 07:55:29;;;;;;;17.17;15.40;;;11.50;99.90;;;;;;4969543;28;20660;-66
2021/10/18 07:58:03;;;;;;;20.47;15.43;;;11.50;99.90;;;;;;4973160;28;20242;-66
2021/10/18 08:00:33;;;;;;;20.67;15.70;;;11.60;99.90;;;;;;4974697;28;20244;-66
2021/10/18 08:03:02;;;;;;;17.63;14.67;;;11.70;99.90;;;;;;4974151;28;20820;-66
2021/10/18 08:05:33;;;;;;;19.03;15.47;;;11.70;99.90;;;;;;4968346;28;20698;-66
2021/10/18 08:08:03;;;;;;;20.60;14.80;;;11.70;99.90;;;;;;4973177;28;20692;-66
2021/10/18 08:10:32;;;;;;;18.03;15.23;;;11.70;99.90;;;;;;4975374;28;20247;-66
2021/10/18 08:13:02;;;;;;;19.00;14.40;;;11.80;99.90;;;;;;4973980;28;20258;-67
2021/10/18 08:15:31;;;;;;;17.63;14.87;;;11.90;99.90;;;;;;4968806;28;20235;-66
2021/10/18 08:17:59;;;;;;;19.63;15.37;;;11.90;99.90;;;;;;4971609;28;21010;-66
2021/10/18 08:20:28;;;;;;;18.03;14.67;;;12.00;99.90;;;;;;4972413;28;20248;-66
2021/10/18 08:22:57;;;;;;;21.20;15.07;;;12.10;99.90;;;;;;4974904;28;20240;-66
2021/10/18 08:25:26;;;;;;;20.37;15.17;;;12.10;99.90;;;;;;4969743;28;20766;-66
2021/10/18 08:27:54;;;;;;;17.20;14.87;;;12.10;99.90;;;;;;4970854;28;21443;-66
2021/10/18 08:30:22;;;;;;;18.50;15.67;;;12.20;99.90;;;;;;4974655;28;20244;-66
2021/10/18 08:32:55;;;;;;;18.80;15.57;;;12.20;99.90;;;;;;4974418;28;20330;-66
2021/10/18 08:35:23;;;;;;;19.07;14.80;;;12.20;99.90;;;;;;4969673;28;20308;-66
2021/10/18 08:40:42;;;;;;;16.73;14.83;;;12.20;99.90;;;;;;4962493;28;20658;-66
2021/10/18 08:43:21;;;;;;;18.23;15.00;;;12.40;99.90;;;;;;4974191;28;20244;-68
2021/10/18 08:45:49;;;;;;;20.70;15.00;;;12.50;99.90;;;;;;4963896;28;20857;-66
2021/10/18 08:48:17;;;;;;;16.57;14.33;;;12.60;99.90;;;;;;4961271;28;20247;-66
2021/10/18 08:50:48;;;;;;;16.07;14.00;;;12.60;99.90;;;;;;4964552;28;20322;-67
2021/10/18 08:53:19;;;;;;;15.57;13.67;;;12.60;99.90;;;;;;4972348;28;20768;-66
2021/10/18 08:55:49;;;;;;;16.30;13.97;;;12.60;99.90;;;;;;4966503;28;20256;-66
2021/10/18 08:58:17;;;;;;;17.40;14.90;;;12.60;99.90;;;;;;4973295;28;20659;-66
2021/10/18 09:00:51;;;;;;;16.60;14.60;;;12.80;99.90;;;;;;4973919;28;20709;-66
2021/10/18 09:03:22;;;;;;;16.03;14.17;;;12.80;99.90;;;;;;4973707;28;20743;-67
2021/10/18 09:05:52;;;;;;;20.47;13.67;;;12.80;99.90;;;;;;4967005;28;20240;-66
2021/10/18 09:08:38;;;;;;;19.03;13.97;;;12.90;99.90;;;;;;4973352;28;20244;-66
2021/10/18 09:11:11;;;;;;;18.33;13.87;;;13.00;99.90;;;;;;4974498;28;20241;-66
2021/10/18 09:13:55;;;;;;;17.53;14.40;;;13.00;99.90;;;;;;4956493;28;20248;-66
2021/10/18 09:16:25;;;;;;;17.23;13.97;;;13.00;99.90;;;;;;4966212;28;20236;-66
2021/10/18 09:19:02;;;;;;;19.57;14.33;;;13.10;99.90;;;;;;4973730;28;20244;-66
2021/10/18 09:21:32;;;;;;;19.17;14.27;;;13.10;99.90;;;;;;4972178;28;20240;-67
2021/10/18 09:24:02;;;;;;;16.87;14.20;;;13.10;99.90;;;;;;4972967;28;20715;-66
2021/10/18 09:26:33;;;;;;;16.57;12.73;;;13.10;99.90;;;;;;4948855;28;20247;-66
2021/10/18 09:29:07;;;;;;;16.97;13.63;;;13.20;99.90;;;;;;4974397;28;20246;-66
2021/10/18 09:31:36;;;;;;;15.17;13.00;;;13.30;99.90;;;;;;4972518;28;20250;-66
2021/10/18 09:34:07;;;;;;;17.93;13.27;;;13.40;99.90;;;;;;4971777;28;20254;-66
2021/10/18 09:36:36;;;;;;;16.33;13.17;;;13.40;99.90;;;;;;4964659;28;20255;-66
2021/10/18 09:39:17;;;;;;;16.30;12.27;;;13.40;99.90;;;;;;4973027;28;20248;-66
2021/10/18 09:41:57;;;;;;;14.03;12.63;;;13.50;99.90;;;;;;4972092;28;20573;-66
2021/10/18 09:44:37;;;;;;;16.60;13.33;;;13.50;99.90;;;;;;4972188;28;20338;-66
2021/10/18 10:52:58;;;;;;;15.10;12.10;;;14.40;99.90;;;;;;4975412;28;20251;-66
2021/10/18 10:55:29;;;;;;;18.83;12.93;;;14.40;99.90;;;;;;4971032;28;20713;-66
2021/10/18 10:57:59;;;;;;;14.17;11.93;;;14.40;99.90;;;;;;4971316;28;20280;-66
2021/10/18 11:00:38;;;;;;;14.33;12.40;;;14.50;99.90;;;;;;4976906;28;20456;-66
2021/10/18 11:03:40;;;;;;;16.33;12.67;;;14.50;99.90;;;;;;4975469;28;20315;-66
2021/10/18 11:06:12;;;;;;;13.90;11.60;;;14.50;99.90;;;;;;4965350;28;20241;-66
2021/10/18 11:08:42;;;;;;;13.27;11.83;;;14.50;99.90;;;;;;4975349;28;20238;-66
2021/10/18 11:11:13;;;;;;;13.73;11.67;;;14.60;99.90;;;;;;4976536;28;20589;-66
2021/10/18 11:13:50;;;;;;;14.90;11.70;;;14.60;99.90;;;;;;4976005;28;20597;-66
2021/10/18 11:16:20;;;;;;;12.93;11.63;;;14.50;99.90;;;;;;4966379;28;20343;-66
2021/10/18 11:18:50;;;;;;;14.93;12.17;;;14.50;99.90;;;;;;4975759;28;20322;-66
2021/10/18 11:21:23;;;;;;;16.20;12.27;;;14.50;99.90;;;;;;4975971;28;20249;-66
2021/10/18 11:23:59;;;;;;;13.83;11.67;;;14.40;99.90;;;;;;4975656;28;20775;-66
2021/10/18 11:26:30;;;;;;;13.90;11.37;;;14.40;99.90;;;;;;4964412;28;20244;-66
2021/10/18 11:29:00;;;;;;;13.77;12.37;;;14.30;99.90;;;;;;4975328;28;20245;-66
2021/10/18 11:31:30;;;;;;;12.00;10.80;;;14.30;99.90;;;;;;4976270;28;20586;-67
2021/10/18 11:34:03;;;;;;;13.27;11.47;;;14.20;99.90;;;;;;4975204;28;20607;-66
2021/10/18 11:36:33;;;;;;;12.97;11.17;;;14.30;99.90;;;;;;4965891;28;20245;-66
2021/10/18 11:39:12;;;;;;;13.87;11.57;;;14.30;99.90;;;;;;4975254;28;20239;-66
2021/10/18 11:42:04;;;;;;;11.50;10.30;;;14.40;99.90;;;;;;4975675;28;20395;-66
2021/10/18 11:44:49;;;;;;;13.60;11.33;;;14.40;99.90;;;;;;4974752;28;20772;-66
2021/10/18 11:47:30;;;;;;;14.40;11.63;;;14.40;99.90;;;;;;4965201;28;20811;-66
2021/10/18 11:50:19;;;;;;;16.20;12.60;;;14.50;99.90;;;;;;4976496;28;20544;-66
2021/10/18 11:52:54;;;;;;;13.80;11.30;;;14.40;99.90;;;;;;4974980;28;21284;-66
2021/10/18 11:55:26;;;;;;;13.20;10.53;;;14.60;99.90;;;;;;4970465;28;20406;-66
2021/10/18 11:57:56;;;;;;;13.43;10.80;;;14.60;99.90;;;;;;4970751;28;20272;-66
2021/10/18 12:00:30;;;;;;;16.57;12.17;;;14.70;99.90;;;;;;4968632;28;20241;-66
2021/10/18 12:03:01;;;;;;;13.87;11.87;;;14.70;99.90;;;;;;4962734;28;20656;-66
2021/10/18 12:05:37;;;;;;;13.10;11.73;;;14.80;99.90;;;;;;4957318;28;20236;-66
2021/10/18 12:08:08;;;;;;;14.17;12.03;;;14.90;99.90;;;;;;4960822;28;20253;-66
2021/10/18 12:10:37;;;;;;;12.90;11.17;;;14.90;99.90;;;;;;4964458;28;20617;-66
2021/10/18 12:13:18;;;;;;;13.13;11.23;;;15.00;99.90;;;;;;4965436;28;20537;-66
2021/10/18 12:15:50;;;;;;;14.33;11.83;;;15.10;99.90;;;;;;4948122;28;20297;-66
2021/10/18 12:18:21;;;;;;;13.90;11.60;;;15.00;99.90;;;;;;4960277;28;20454;-66
2021/10/18 12:20:52;;;;;;;13.30;11.73;;;14.90;99.90;;;;;;4964515;28;21325;-66
2021/10/18 12:23:26;;;;;;;12.87;11.57;;;15.00;99.90;;;;;;4966236;28;20247;-66
2021/10/18 12:26:00;;;;;;;16.37;11.87;;;15.10;99.90;;;;;;4964320;28;20747;-66
2021/10/18 12:28:42;;;;;;;14.13;11.70;;;15.10;99.90;;;;;;4968518;28;20332;-66
2021/10/18 12:31:42;;;;;;;14.33;11.57;;;15.30;99.90;;;;;;4975127;28;20336;-66
2021/10/18 12:34:16;;;;;;;13.07;10.63;;;15.30;99.90;;;;;;4975527;28;20299;-66
2021/10/18 12:36:57;;;;;;;13.67;11.37;;;15.20;99.90;;;;;;4971258;28;20240;-66
2021/10/18 12:39:41;;;;;;;13.37;11.73;;;15.30;99.90;;;;;;4975757;28;20233;-66
2021/10/18 12:42:11;;;;;;;13.43;11.67;;;15.40;99.90;;;;;;4975444;28;20980;-66
2021/10/18 12:44:41;;;;;;;11.67;10.00;;;15.40;99.90;;;;;;4975188;28;20237;-66
2021/10/18 12:47:14;;;;;;;14.33;11.37;;;15.30;99.90;;;;;;4968734;28;20242;-66
2021/10/18 12:49:44;;;;;;;12.67;10.93;;;15.20;99.90;;;;;;4975804;28;20237;-66
2021/10/18 12:52:12;;;;;;;13.20;10.70;;;15.20;99.90;;;;;;4974885;28;20238;-66
2021/10/18 12:54:44;;;;;;;14.00;10.30;;;15.10;99.90;;;;;;4975520;28;20241;-66
2021/10/18 12:57:13;;;;;;;12.13;10.10;;;15.10;99.90;;;;;;4969130;28;20628;-67
2021/10/18 13:00:00;;;;;;;13.63;10.73;;;15.10;99.90;;;;;;4974593;28;20238;-66
2021/10/18 13:02:35;;;;;;;11.80;10.60;;;15.10;99.90;;;;;;4976348;28;20234;-66
2021/10/18 13:05:13;;;;;;;11.43;9.90;;;15.10;99.90;;;;;;4975106;28;20245;-66
2021/10/18 13:07:44;;;;;;;11.97;10.43;;;15.10;99.90;;;;;;4972824;28;20510;-66
2021/10/18 13:10:16;;;;;;;10.97;9.43;;;15.20;99.90;;;;;;4977579;28;20251;-66
2021/10/18 13:12:45;;;;;;;11.60;9.90;;;15.20;99.90;;;;;;4974940;28;20265;-67
2021/10/18 13:15:15;;;;;;;12.07;9.53;;;15.30;99.90;;;;;;4974600;28;20672;-67
2021/10/18 13:17:44;;;;;;;12.50;10.20;;;15.20;99.90;;;;;;4973714;28;20360;-66
2021/10/18 13:20:14;;;;;;;11.33;9.33;;;15.20;99.90;;;;;;4975917;28;20272;-66
2021/10/18 13:22:43;;;;;;;12.70;9.93;;;15.10;99.90;;;;;;4977190;28;20245;-66
2021/10/18 13:25:14;;;;;;;11.80;9.97;;;15.10;99.90;;;;;;4972876;28;20233;-66
2021/10/18 13:27:45;;;;;;;11.03;9.83;;;15.10;99.90;;;;;;4972489;28;20245;-67
2021/10/18 13:30:15;;;;;;;11.50;10.10;;;15.20;99.90;;;;;;4949486;28;20280;-67
2021/10/18 13:32:47;;;;;;;13.07;10.43;;;15.10;99.90;;;;;;4975196;28;20308;-66
2021/10/18 13:35:15;;;;;;;11.53;9.60;;;15.20;99.90;;;;;;4974299;28;20239;-67
2021/10/18 13:37:44;;;;;;;12.80;11.13;;;15.20;99.90;;;;;;4972730;28;20352;-66
2021/10/18 13:40:14;;;;;;;11.57;10.33;;;15.20;99.90;;;;;;4976221;28;20606;-66
2021/10/18 13:42:46;;;;;;;11.30;10.10;;;15.20;99.90;;;;;;4975651;28;20362;-66
2021/10/18 13:45:16;;;;;;;14.03;10.10;;;15.10;99.90;;;;;;4973192;28;20324;-66
2021/10/18 13:47:44;;;;;;;12.00;10.73;;;15.10;99.90;;;;;;4973026;28;20237;-66
2021/10/18 13:50:12;;;;;;;11.60;9.57;;;15.10;99.90;;;;;;4976617;28;20257;-66
2021/10/18 13:52:41;;;;;;;11.93;10.33;;;15.10;99.90;;;;;;4977019;28;20236;-66